Hilger, Montana
Current Conditions -  °F | °C
As of 11:54 AM on Monday 22 Dec 2014 (Local Time) from KLWT Reporting Station
Overcast Overcast  
Wind Chill: 27°   Ceiling: 8000
Heat Index: 37°   Visibility: 10mi
Dew Point: 22°   Wind: 18mph
Humidity: 54%   Direction: 300°WNW
Pressure: 29.83"   Gusts: 30mph
Location:  47.25°N, 109.36°W
Report Text: KLWT 221854Z AUTO 30016G26KT 10SM FEW070 OVC080 03/M06 A2983 RMK AO2 PK WND 30026/1847 SLP116 T00281056
Loading
Personal Weather Stations






























Interactive Weather Map New forecast layout! Learn more

10-Day Weather Forecast

Advertisements
Track Severe Weather on mobile